createdAt,value
2023-04-02T00:01:40.748Z,3.65
2023-04-02T00:04:22.157Z,3.55
2023-04-02T00:06:57.230Z,3.85
2023-04-02T00:09:33.902Z,3.50
2023-04-02T00:12:19.565Z,3.80
2023-04-02T00:14:52.311Z,3.30
2023-04-02T00:17:23.189Z,3.00
2023-04-02T00:19:55.139Z,2.80
2023-04-02T00:22:29.477Z,2.88
2023-04-02T00:25:04.657Z,2.50
2023-04-02T00:27:34.625Z,2.50
2023-04-02T00:30:04.449Z,2.75
2023-04-02T00:32:35.165Z,3.15
2023-04-02T00:35:05.483Z,3.00
2023-04-02T00:37:39.200Z,3.42
2023-04-02T00:40:17.216Z,3.13
2023-04-02T00:42:47.429Z,3.75
2023-04-02T00:45:22.753Z,3.90
2023-04-02T00:47:53.083Z,3.40
2023-04-02T00:50:29.070Z,3.45
2023-04-02T00:53:00.202Z,3.42
2023-04-02T00:55:36.500Z,3.22
2023-04-02T00:58:08.221Z,3.50
2023-04-02T01:00:39.178Z,2.60
2023-04-02T01:03:35.032Z,3.45
2023-04-02T01:06:11.030Z,3.90
2023-04-02T01:08:54.165Z,3.50
2023-04-02T01:11:39.407Z,3.25
2023-04-02T01:14:12.773Z,3.42
2023-04-02T01:16:50.519Z,3.05
2023-04-02T01:19:39.775Z,3.83
2023-04-02T01:22:12.103Z,3.50
2023-04-02T01:24:44.166Z,3.38
2023-04-02T01:27:20.850Z,3.40
2023-04-02T01:29:56.821Z,2.97
2023-04-02T01:32:28.339Z,3.20
2023-04-02T01:34:58.894Z,3.28
2023-04-02T01:37:40.642Z,3.30
2023-04-02T01:40:19.140Z,3.40
2023-04-02T01:42:55.995Z,3.78
2023-04-02T01:45:28.973Z,3.60
2023-04-02T01:47:59.482Z,3.53
2023-04-02T01:50:33.855Z,3.20
2023-04-02T01:53:05.226Z,2.88
2023-04-02T01:55:42.753Z,3.10
2023-04-02T01:58:14.304Z,2.58
2023-04-02T02:00:52.858Z,2.70
2023-04-02T02:03:22.806Z,2.50
2023-04-02T02:05:52.901Z,2.72
2023-04-02T02:08:35.217Z,2.97
2023-04-02T02:11:05.851Z,2.80
2023-04-02T02:13:35.603Z,2.63
2023-04-02T02:16:10.230Z,2.65
2023-04-02T02:18:40.141Z,2.85
2023-04-02T02:21:11.144Z,3.13
2023-04-02T02:23:40.842Z,2.92
2023-04-02T02:26:11.009Z,2.85
2023-04-02T02:28:42.662Z,3.40
2023-04-02T02:31:18.940Z,3.25
2023-04-02T02:33:53.570Z,3.10
2023-04-02T02:36:28.895Z,3.00
2023-04-02T02:39:05.259Z,3.30
2023-04-02T02:41:46.084Z,3.20
2023-04-02T02:44:20.407Z,3.15
2023-04-02T02:46:54.871Z,3.38
2023-04-02T02:49:29.053Z,3.08
2023-04-02T02:52:03.335Z,3.13
2023-04-02T02:54:45.473Z,3.25
2023-04-02T02:57:17.375Z,3.22
2023-04-02T02:59:48.192Z,4.30
2023-04-02T03:02:21.559Z,3.67
2023-04-02T03:04:54.022Z,4.07
2023-04-02T03:07:29.407Z,3.92
2023-04-02T03:10:06.979Z,3.65
2023-04-02T03:12:45.844Z,4.80
2023-04-02T03:15:22.040Z,4.68
2023-04-02T03:17:57.647Z,4.65
2023-04-02T03:20:29.795Z,4.65
2023-04-02T03:23:02.590Z,5.13
2023-04-02T03:25:38.178Z,3.75
2023-04-02T03:28:09.588Z,4.20
2023-04-02T03:30:43.311Z,4.20
2023-04-02T03:33:20.430Z,4.40
2023-04-02T03:35:57.957Z,3.85
2023-04-02T03:38:30.580Z,3.72
2023-04-02T03:41:07.835Z,4.80
2023-04-02T03:43:42.703Z,4.93
2023-04-02T03:46:25.161Z,5.15
2023-04-02T03:49:00.768Z,5.20
2023-04-02T03:51:34.004Z,5.30
2023-04-02T03:56:40.183Z,5.80
2023-04-02T03:59:18.988Z,5.47
2023-04-02T04:01:52.203Z,5.68
2023-04-02T04:04:25.157Z,5.03
2023-04-02T04:06:56.401Z,4.90
2023-04-02T04:09:29.879Z,5.28
2023-04-02T04:12:09.969Z,4.78
2023-04-02T04:14:42.338Z,5.18
2023-04-02T04:19:52.035Z,3.72
2023-04-02T04:22:30.176Z,5.20
2023-04-02T04:25:07.023Z,5.45
2023-04-02T04:27:42.962Z,5.03
2023-04-02T04:30:21.123Z,4.50
2023-04-02T04:32:58.251Z,4.70
2023-04-02T04:35:34.209Z,5.32
2023-04-02T04:38:10.385Z,5.10
2023-04-02T04:40:45.279Z,4.97
2023-04-02T04:43:19.707Z,4.90
2023-04-02T04:48:26.815Z,5.40
2023-04-02T04:51:02.847Z,5.10
2023-04-02T04:53:33.887Z,6.03
2023-04-02T04:56:18.956Z,5.97
2023-04-02T04:58:55.426Z,6.05
2023-04-02T05:01:28.517Z,5.50
2023-04-02T05:04:01.609Z,6.47
2023-04-02T05:06:42.656Z,6.15
2023-04-02T05:09:18.745Z,6.18
2023-04-02T05:11:51.195Z,6.30
2023-04-02T05:14:26.700Z,6.25
2023-04-02T05:17:03.117Z,6.63
2023-04-02T05:19:37.575Z,5.80
2023-04-02T05:22:17.977Z,5.80
2023-04-02T05:24:56.426Z,5.15
2023-04-02T05:27:35.189Z,5.75
2023-04-02T05:30:12.825Z,6.15
2023-04-02T05:32:46.634Z,6.28
2023-04-02T05:35:22.298Z,5.70
2023-04-02T05:37:54.613Z,6.47
2023-04-02T05:40:26.543Z,6.07
2023-04-02T05:42:56.649Z,7.10
2023-04-02T05:45:31.469Z,8.30
2023-04-02T05:48:06.081Z,8.95
2023-04-02T05:50:45.029Z,7.78
2023-04-02T05:53:26.278Z,7.72
2023-04-02T05:55:59.623Z,7.03
2023-04-02T05:58:36.955Z,7.85
2023-04-02T06:01:28.302Z,7.38
2023-04-02T06:04:03.812Z,8.30
2023-04-02T06:06:46.780Z,7.70
2023-04-02T06:09:24.574Z,7.95
2023-04-02T06:11:58.956Z,7.60
2023-04-02T06:14:28.697Z,8.85
2023-04-02T06:16:58.926Z,7.80
2023-04-02T06:19:33.415Z,7.97
2023-04-02T06:22:12.438Z,8.75
2023-04-02T06:24:47.155Z,8.85
2023-04-02T06:27:20.086Z,8.55
2023-04-02T06:29:53.078Z,8.00
2023-04-02T06:32:27.049Z,8.00
2023-04-02T06:34:57.134Z,8.85
2023-04-02T06:37:31.559Z,8.40
2023-04-02T06:40:28.669Z,8.40
2023-04-02T06:42:59.985Z,7.95
2023-04-02T06:46:00.901Z,8.80
2023-04-02T06:48:37.305Z,8.13
2023-04-02T06:51:09.892Z,7.47
2023-04-02T06:53:43.101Z,8.95
2023-04-02T06:56:25.413Z,8.85
2023-04-02T06:58:55.216Z,9.38
2023-04-02T07:01:28.699Z,8.57
2023-04-02T07:03:59.347Z,6.72
2023-04-02T07:06:37.385Z,7.65
2023-04-02T07:09:07.763Z,8.30
2023-04-02T07:11:43.194Z,8.63
2023-04-02T07:14:14.716Z,8.85
2023-04-02T07:16:45.924Z,8.25
2023-04-02T07:19:21.940Z,8.85
2023-04-02T07:21:56.637Z,8.60
2023-04-02T07:24:28.269Z,9.07
2023-04-02T07:27:00.571Z,10.02
2023-04-02T07:29:30.390Z,7.72
2023-04-02T07:32:00.124Z,9.02
2023-04-02T07:34:29.883Z,8.60
2023-04-02T07:36:59.540Z,9.05
2023-04-02T07:39:29.187Z,9.13
2023-04-02T07:42:02.921Z,8.85
2023-04-02T07:44:32.595Z,8.00
2023-04-02T07:47:02.295Z,8.88
2023-04-02T07:49:31.984Z,8.27
2023-04-02T07:52:02.110Z,8.02
2023-04-02T07:54:31.830Z,6.97
2023-04-02T07:57:04.129Z,7.78
2023-04-02T07:59:33.873Z,5.97
2023-04-02T08:02:04.554Z,7.57
2023-04-02T08:04:34.580Z,7.70
2023-04-02T08:07:04.466Z,7.70
2023-04-02T08:09:34.141Z,8.13
2023-04-02T08:12:06.641Z,8.40
2023-04-02T08:14:36.377Z,7.95
2023-04-02T08:17:06.348Z,8.23
2023-04-02T08:19:44.611Z,7.72
2023-04-02T08:22:21.601Z,8.63
2023-04-02T08:24:51.255Z,8.35
2023-04-02T08:27:23.686Z,7.95
2023-04-02T08:29:53.807Z,8.45
2023-04-02T08:32:24.316Z,7.88
2023-04-02T08:34:54.060Z,8.02
2023-04-02T08:37:23.741Z,7.90
2023-04-02T08:39:53.395Z,6.13
2023-04-02T08:42:32.999Z,7.68
2023-04-02T08:45:23.543Z,6.95
2023-04-02T08:47:56.645Z,6.75
2023-04-02T08:50:33.016Z,5.57
2023-04-02T08:53:04.352Z,6.65
2023-04-02T08:55:39.980Z,6.30
2023-04-02T08:58:20.992Z,7.97
2023-04-02T09:00:52.313Z,5.75
2023-04-02T09:03:24.846Z,6.32
2023-04-02T09:05:55.351Z,5.30
2023-04-02T09:08:27.310Z,6.43
2023-04-02T09:11:02.286Z,5.88
2023-04-02T09:13:37.683Z,5.57
2023-04-02T09:16:11.898Z,5.70
2023-04-02T09:21:28.385Z,5.53
2023-04-02T09:23:58.113Z,5.72
2023-04-02T09:26:30.778Z,5.78
2023-04-02T09:29:24.829Z,5.90
2023-04-02T09:32:00.269Z,5.03
2023-04-02T09:34:31.470Z,5.93
2023-04-02T09:37:10.105Z,5.82
2023-04-02T09:39:40.225Z,5.75
2023-04-02T09:42:10.845Z,6.10
2023-04-02T09:44:43.524Z,6.20
2023-04-02T09:47:27.367Z,5.88
2023-04-02T09:49:57.063Z,5.97
2023-04-02T09:52:31.059Z,6.32
2023-04-02T09:55:22.620Z,4.97
2023-04-02T09:57:53.611Z,6.05
2023-04-02T10:00:32.016Z,5.95
2023-04-02T10:03:24.931Z,6.10
2023-04-02T10:06:07.918Z,5.60
2023-04-02T10:08:38.853Z,5.90
2023-04-02T10:11:12.156Z,5.85
2023-04-02T10:13:49.201Z,5.57
2023-04-02T10:16:27.131Z,5.60
2023-04-02T10:19:00.122Z,6.10
2023-04-02T10:21:32.360Z,4.65
2023-04-02T10:24:03.073Z,5.68
2023-04-02T10:26:48.459Z,5.80
2023-04-02T10:29:41.723Z,5.50
2023-04-02T10:32:17.914Z,4.93
2023-04-02T10:34:53.300Z,5.25
2023-04-02T10:37:53.063Z,4.93
2023-04-02T10:40:28.381Z,4.93
2023-04-02T10:43:07.581Z,5.05
2023-04-02T10:45:42.798Z,5.30
2023-04-02T10:48:23.130Z,4.72
2023-04-02T10:50:58.259Z,5.00
2023-04-02T10:53:35.077Z,4.85
2023-04-02T10:56:08.887Z,4.95
2023-04-02T10:58:43.345Z,5.43
2023-04-02T11:01:18.180Z,5.65
2023-04-02T11:03:57.843Z,5.70
2023-04-02T11:06:30.251Z,4.85
2023-04-02T11:09:02.093Z,5.63
2023-04-02T11:11:34.826Z,4.53
2023-04-02T11:14:07.079Z,5.00
2023-04-02T11:16:39.354Z,6.03
2023-04-02T11:19:25.487Z,5.50
2023-04-02T11:22:00.089Z,5.82
2023-04-02T11:24:39.748Z,5.07
2023-04-02T11:27:25.602Z,5.40
2023-04-02T11:30:04.989Z,4.45
2023-04-02T11:32:39.660Z,5.03
2023-04-02T11:35:38.701Z,5.03
2023-04-02T11:38:48.077Z,4.53
2023-04-02T11:44:03.523Z,4.55
2023-04-02T11:46:45.948Z,4.75
2023-04-02T11:49:37.224Z,4.95
2023-04-02T11:52:25.705Z,4.70
2023-04-02T11:55:20.661Z,4.70
2023-04-02T11:57:59.074Z,4.68
2023-04-02T12:00:45.187Z,4.88
2023-04-02T12:03:40.250Z,4.38
2023-04-02T12:06:16.356Z,3.75
2023-04-02T12:08:57.948Z,4.50
2023-04-02T12:11:36.026Z,4.53
2023-04-02T12:14:10.920Z,4.47
2023-04-02T12:16:40.623Z,4.22
2023-04-02T12:19:11.756Z,4.00
2023-04-02T12:21:41.666Z,4.03
2023-04-02T12:24:21.903Z,3.67
2023-04-02T12:26:52.720Z,4.38
2023-04-02T12:29:27.686Z,3.80
2023-04-02T12:31:58.529Z,3.67
2023-04-02T12:34:29.474Z,4.45
2023-04-02T12:37:02.723Z,4.32
2023-04-02T12:39:37.425Z,4.10
2023-04-02T12:42:07.986Z,4.07
2023-04-02T12:44:37.676Z,3.85
2023-04-02T12:47:07.738Z,4.03
2023-04-02T12:49:39.524Z,3.72
2023-04-02T12:52:10.890Z,4.07
2023-04-02T12:54:49.531Z,3.83
2023-04-02T12:57:36.387Z,3.42
2023-04-02T13:00:38.354Z,3.58
2023-04-02T13:03:23.215Z,3.90
2023-04-02T13:05:56.547Z,3.90
2023-04-02T13:08:28.484Z,3.83
2023-04-02T13:11:02.476Z,4.07
2023-04-02T13:13:35.735Z,3.97
2023-04-02T13:16:09.861Z,3.70
2023-04-02T13:21:10.671Z,3.80
2023-04-02T13:23:40.345Z,3.90
2023-04-02T13:26:19.147Z,3.90
2023-04-02T13:28:59.346Z,3.80
2023-04-02T13:31:29.098Z,3.88
2023-04-02T13:33:58.961Z,3.42
2023-04-02T13:36:29.635Z,3.63
2023-04-02T13:38:59.563Z,3.90
2023-04-02T13:41:33.236Z,3.20
2023-04-02T13:44:06.314Z,3.53
2023-04-02T13:46:37.188Z,3.60
2023-04-02T13:49:06.821Z,3.35
2023-04-02T13:51:39.733Z,3.75
2023-04-02T13:54:11.980Z,3.70
2023-04-02T13:56:44.227Z,3.75
2023-04-02T13:59:13.927Z,3.95
2023-04-02T14:01:44.946Z,3.70
2023-04-02T14:04:17.740Z,3.70
2023-04-02T14:07:13.410Z,3.20
2023-04-02T14:09:53.919Z,3.65
2023-04-02T14:12:35.049Z,3.90
2023-04-02T14:15:20.200Z,3.20
2023-04-02T14:18:00.672Z,3.10
2023-04-02T14:20:39.008Z,3.25
2023-04-02T14:23:20.538Z,3.22
2023-04-02T14:25:57.714Z,3.40
2023-04-02T14:28:38.189Z,3.63
2023-04-02T14:31:15.205Z,3.45
2023-04-02T14:33:50.296Z,3.22
2023-04-02T14:36:25.412Z,3.63
2023-04-02T14:38:59.074Z,3.45
2023-04-02T14:41:33.704Z,3.85
2023-04-02T14:44:07.396Z,3.38
2023-04-02T14:46:39.890Z,3.38
2023-04-02T14:49:21.891Z,3.60
2023-04-02T14:51:52.986Z,3.22
2023-04-02T14:54:27.372Z,3.60
2023-04-02T14:56:58.772Z,3.15
2023-04-02T14:59:34.197Z,3.22
2023-04-02T15:02:06.938Z,3.40
2023-04-02T15:04:40.210Z,3.53
2023-04-02T15:07:17.309Z,3.53
2023-04-02T15:09:50.664Z,3.22
2023-04-02T15:12:24.256Z,3.50
2023-04-02T15:14:58.320Z,3.30
2023-04-02T15:20:04.210Z,3.20
2023-04-02T15:22:37.549Z,3.22
2023-04-02T15:25:26.615Z,3.42
2023-04-02T15:28:12.176Z,3.20
2023-04-02T15:30:46.266Z,3.95
2023-04-02T15:33:37.202Z,4.43
2023-04-02T15:36:22.216Z,4.38
2023-04-02T15:38:55.616Z,4.60
2023-04-02T15:41:28.174Z,4.55
2023-04-02T15:44:02.390Z,4.03
2023-04-02T15:49:13.400Z,4.68
2023-04-02T15:51:50.183Z,4.78
2023-04-02T15:54:36.036Z,4.65
2023-04-02T15:57:17.538Z,4.28
2023-04-02T15:59:59.877Z,4.20
2023-04-02T16:03:00.034Z,4.15
2023-04-02T16:05:41.536Z,4.00
2023-04-02T16:08:22.815Z,4.53
2023-04-02T16:10:52.486Z,4.88
2023-04-02T16:13:29.867Z,4.68
2023-04-02T16:16:06.511Z,4.88
2023-04-02T16:18:42.083Z,4.47
2023-04-02T16:21:20.058Z,4.38
2023-04-02T16:23:49.741Z,4.25
2023-04-02T16:26:26.776Z,4.40
2023-04-02T16:29:02.617Z,5.10
2023-04-02T16:31:36.000Z,4.47
2023-04-02T16:34:11.160Z,4.22
2023-04-02T16:36:53.192Z,4.22
2023-04-02T16:39:31.651Z,4.38
2023-04-02T16:42:08.608Z,4.38
2023-04-02T16:44:47.330Z,4.32
2023-04-02T16:47:26.782Z,4.55
2023-04-02T16:50:00.700Z,3.92
2023-04-02T16:52:43.700Z,4.43
2023-04-02T16:55:26.260Z,4.57
2023-04-02T16:58:05.096Z,4.32
2023-04-02T17:00:39.156Z,4.55
2023-04-02T17:05:53.211Z,3.58
2023-04-02T17:08:28.118Z,4.10
2023-04-02T17:11:00.781Z,4.15
2023-04-02T17:13:34.796Z,4.20
2023-04-02T17:16:15.644Z,4.22
2023-04-02T17:18:46.835Z,4.53
2023-04-02T17:21:21.608Z,3.90
2023-04-02T17:23:57.368Z,4.00
2023-04-02T17:26:29.668Z,3.50
2023-04-02T17:29:01.025Z,3.60
2023-04-02T17:31:35.365Z,3.30
2023-04-02T17:34:13.424Z,4.13
2023-04-02T17:36:49.686Z,3.67
2023-04-02T17:39:25.777Z,3.53
2023-04-02T17:41:59.166Z,4.10
2023-04-02T17:44:44.234Z,3.42
2023-04-02T17:47:18.917Z,3.83
2023-04-02T17:49:56.690Z,3.70
2023-04-02T17:52:28.365Z,3.70
2023-04-02T17:55:08.486Z,4.57
2023-04-02T17:57:47.465Z,3.90
2023-04-02T18:00:25.514Z,3.95
2023-04-02T18:03:04.260Z,4.00
2023-04-02T18:05:36.418Z,4.13
2023-04-02T18:08:14.680Z,4.40
2023-04-02T18:10:52.639Z,4.20
2023-04-02T18:13:26.868Z,4.20
2023-04-02T18:16:03.234Z,4.38
2023-04-02T18:18:47.504Z,4.07
2023-04-02T18:21:23.079Z,4.32
2023-04-02T18:24:02.036Z,4.70
2023-04-02T18:26:42.670Z,4.47
2023-04-02T18:29:21.730Z,4.55
2023-04-02T18:31:55.913Z,4.68
2023-04-02T18:37:15.358Z,4.50
2023-04-02T18:39:54.455Z,4.60
2023-04-02T18:42:39.478Z,4.47
2023-04-02T18:45:16.164Z,4.72
2023-04-02T18:47:50.431Z,4.68
2023-04-02T18:50:22.342Z,4.95
2023-04-02T18:52:53.266Z,4.53
2023-04-02T18:55:25.477Z,4.30
2023-04-02T18:58:01.417Z,4.50
2023-04-02T19:00:33.914Z,4.32
2023-04-02T19:03:06.868Z,4.50
2023-04-02T19:05:44.621Z,4.97
2023-04-02T19:08:18.762Z,4.65
2023-04-02T19:10:50.533Z,4.80
2023-04-02T19:13:23.907Z,5.10
2023-04-02T19:16:04.357Z,4.90
2023-04-02T19:18:41.785Z,5.10
2023-04-02T19:21:17.687Z,5.55
2023-04-02T19:23:59.088Z,5.15
2023-04-02T19:26:35.094Z,5.15
2023-04-02T19:29:14.706Z,5.50
2023-04-02T19:31:51.289Z,5.25
2023-04-02T19:34:25.115Z,4.95
2023-04-02T19:36:56.946Z,5.30
2023-04-02T19:39:46.821Z,5.70
2023-04-02T19:42:25.802Z,11.10
2023-04-02T19:44:58.216Z,6.20
2023-04-02T19:47:27.996Z,6.47
2023-04-02T19:49:58.206Z,6.80
2023-04-02T19:52:27.977Z,6.50
2023-04-02T19:54:57.845Z,6.45
2023-04-02T19:57:28.526Z,6.53
2023-04-02T20:00:00.824Z,7.22
2023-04-02T20:02:30.691Z,6.57
2023-04-02T20:05:00.619Z,7.05
2023-04-02T20:07:30.269Z,7.80
2023-04-02T20:09:59.943Z,7.60
2023-04-02T20:12:29.629Z,7.57
2023-04-02T20:15:01.906Z,7.70
2023-04-02T20:17:31.682Z,8.45
2023-04-02T20:20:01.421Z,7.53
2023-04-02T20:22:31.123Z,7.57
2023-04-02T20:25:00.984Z,6.70
2023-04-02T20:27:31.449Z,7.78
2023-04-02T20:30:03.750Z,8.10
2023-04-02T20:32:35.186Z,8.55
2023-04-02T20:35:06.949Z,7.90
2023-04-02T20:37:36.904Z,7.50
2023-04-02T20:40:07.005Z,8.20
2023-04-02T20:42:36.798Z,8.10
2023-04-02T20:45:11.172Z,8.50
2023-04-02T20:47:40.937Z,9.18
2023-04-02T20:50:11.718Z,8.57
2023-04-02T20:52:41.514Z,9.07
2023-04-02T20:55:12.658Z,8.75
2023-04-02T20:57:42.524Z,9.52
2023-04-02T21:00:15.827Z,9.57
2023-04-02T21:02:45.573Z,10.50
2023-04-02T21:05:15.263Z,9.55
2023-04-02T21:07:44.955Z,10.00
2023-04-02T21:10:14.638Z,11.43
2023-04-02T21:12:44.326Z,11.98
2023-04-02T21:15:16.680Z,10.73
2023-04-02T21:17:46.543Z,10.68
2023-04-02T21:20:16.234Z,11.50
2023-04-02T21:22:45.944Z,11.18
2023-04-02T21:25:15.906Z,11.38
2023-04-02T21:27:45.692Z,10.93
2023-04-02T21:30:18.237Z,11.18
2023-04-02T21:32:47.947Z,11.80
2023-04-02T21:35:17.830Z,12.40
2023-04-02T21:37:47.492Z,12.80
2023-04-02T21:40:17.397Z,12.95
2023-04-02T21:42:47.230Z,12.20
2023-04-02T21:45:19.705Z,13.32
2023-04-02T21:47:49.439Z,12.75
2023-04-02T21:50:19.246Z,12.98
2023-04-02T21:52:48.999Z,13.48
2023-04-02T21:55:18.972Z,14.07
2023-04-02T21:57:48.637Z,13.70
2023-04-02T22:00:21.494Z,14.88
2023-04-02T22:02:51.316Z,13.90
2023-04-02T22:05:21.079Z,13.90
2023-04-02T22:07:50.778Z,14.15
2023-04-02T22:10:20.783Z,14.57
2023-04-02T22:12:50.633Z,15.00
2023-04-02T22:15:22.976Z,14.80
2023-04-02T22:17:52.859Z,14.05
2023-04-02T22:20:22.658Z,14.43
2023-04-02T22:22:53.427Z,13.88
2023-04-02T22:25:23.172Z,14.52
2023-04-02T22:27:53.744Z,14.25
2023-04-02T22:30:27.955Z,13.98
2023-04-02T22:35:27.358Z,15.05
2023-04-02T22:37:57.387Z,14.18
2023-04-02T22:40:27.238Z,15.68
2023-04-02T22:42:56.982Z,14.52
2023-04-02T22:45:29.295Z,15.35
2023-04-02T22:47:58.985Z,15.38
2023-04-02T22:50:28.673Z,15.85
2023-04-02T22:52:58.374Z,15.13
2023-04-02T22:55:28.070Z,14.77
2023-04-02T22:57:57.749Z,16.30
2023-04-02T23:00:30.470Z,15.02
2023-04-02T23:03:00.171Z,15.38
2023-04-02T23:05:31.177Z,15.50
2023-04-02T23:08:01.215Z,14.50
2023-04-02T23:10:31.006Z,15.57
2023-04-02T23:13:00.891Z,15.65
2023-04-02T23:15:33.195Z,15.95
2023-04-02T23:18:02.916Z,16.63
2023-04-02T23:20:32.650Z,15.85
2023-04-02T23:23:02.366Z,15.68
2023-04-02T23:25:32.512Z,15.98
2023-04-02T23:28:02.246Z,15.15
2023-04-02T23:30:34.854Z,15.10
2023-04-02T23:33:04.904Z,15.10
2023-04-02T23:35:34.645Z,15.60
2023-04-02T23:38:04.580Z,15.20
2023-04-02T23:40:34.534Z,16.08
2023-04-02T23:43:04.441Z,16.23
2023-04-02T23:45:36.704Z,16.27
2023-04-02T23:48:06.962Z,16.02
2023-04-02T23:50:36.846Z,15.38
2023-04-02T23:53:06.713Z,16.63
2023-04-02T23:55:36.368Z,16.42
2023-04-02T23:58:06.471Z,15.48
